Time;durP1;ratioP1;P1;durP2;ratioP2;P2;SDS_P1;SDS_P2;PMS_P1;PMS_P2;Temp;Humidity;BMP_temperature;BMP_pressure;BME280_temperature;BME280_humidity;BME280_pressure;Samples;Min_cycle;Max_cycle;Signal;HPM_P1;HPM_P2
2022/03/17 00:02:04;;;;;;;10.57;7.17;;;;;;;;;;4923656;29;20208;-62
2022/03/17 00:04:31;;;;;;;14.37;8.23;;;;;;;;;;4923141;29;20640;-62
2022/03/17 00:06:58;;;;;;;11.50;7.30;;;;;;;;;;4921552;29;20239;-62
2022/03/17 00:09:25;;;;;;;10.97;7.60;;;;;;;;;;4919906;29;20267;-62
2022/03/17 00:11:53;;;;;;;12.57;8.27;;;;;;;;;;4919778;29;20215;-63
2022/03/17 00:14:20;;;;;;;14.23;7.20;;;;;;;;;;4920282;29;20678;-62
2022/03/17 00:16:48;;;;;;;17.90;9.50;;;;;;;;;;4921935;29;20208;-62
2022/03/17 00:19:15;;;;;;;16.63;9.23;;;;;;;;;;4920699;29;20304;-62
2022/03/17 00:21:42;;;;;;;16.60;8.90;;;;;;;;;;4921659;29;20220;-62
2022/03/17 00:24:09;;;;;;;16.60;8.97;;;;;;;;;;4921858;29;20628;-62
2022/03/17 00:26:37;;;;;;;17.00;9.10;;;;;;;;;;4924505;29;20267;-62
2022/03/17 00:29:07;;;;;;;21.23;10.53;;;;;;;;;;4924063;29;20751;-62
2022/03/17 00:31:35;;;;;;;17.07;8.50;;;;;;;;;;4926176;29;20659;-62
2022/03/17 00:34:03;;;;;;;15.80;9.03;;;;;;;;;;4925273;29;20279;-62
2022/03/17 00:36:30;;;;;;;17.97;8.63;;;;;;;;;;4925854;29;20325;-62
2022/03/17 00:38:57;;;;;;;24.27;11.10;;;;;;;;;;4925968;29;20985;-62
2022/03/17 00:41:24;;;;;;;24.63;11.67;;;;;;;;;;4928556;29;20235;-62
2022/03/17 00:43:51;;;;;;;21.77;9.87;;;;;;;;;;4924621;29;20216;-62
2022/03/17 00:46:20;;;;;;;14.83;9.07;;;;;;;;;;4927204;29;20204;-62
2022/03/17 00:48:47;;;;;;;17.37;9.00;;;;;;;;;;4924848;29;20606;-62
2022/03/17 00:51:15;;;;;;;19.20;8.80;;;;;;;;;;4932862;29;20212;-62
2022/03/17 00:53:42;;;;;;;12.40;7.80;;;;;;;;;;4928306;29;20210;-62
2022/03/17 00:56:09;;;;;;;13.40;8.83;;;;;;;;;;4928670;29;20243;-61
2022/03/17 00:58:37;;;;;;;14.13;8.50;;;;;;;;;;4928700;29;20682;-61
2022/03/17 01:01:04;;;;;;;17.20;9.13;;;;;;;;;;4932168;29;20215;-61
2022/03/17 01:03:31;;;;;;;20.03;10.50;;;;;;;;;;4927810;29;20584;-61
2022/03/17 01:05:59;;;;;;;19.47;10.33;;;;;;;;;;4927512;29;20208;-60
2022/03/17 01:08:28;;;;;;;14.77;9.07;;;;;;;;;;4927390;29;20774;-60
2022/03/17 01:10:56;;;;;;;19.87;10.83;;;;;;;;;;4924815;29;20245;-60
2022/03/17 01:13:23;;;;;;;21.53;10.80;;;;;;;;;;4931878;29;20212;-60
2022/03/17 01:15:50;;;;;;;17.40;9.27;;;;;;;;;;4928197;29;20204;-60
2022/03/17 01:18:17;;;;;;;16.70;8.90;;;;;;;;;;4925651;29;20219;-60
2022/03/17 01:20:44;;;;;;;15.47;8.67;;;;;;;;;;4925596;29;20664;-61
2022/03/17 01:23:11;;;;;;;18.63;10.10;;;;;;;;;;4926821;29;20208;-60
2022/03/17 01:25:40;;;;;;;15.60;8.90;;;;;;;;;;4925399;29;20207;-60
2022/03/17 01:28:07;;;;;;;13.97;8.67;;;;;;;;;;4927315;29;20600;-61
2022/03/17 01:30:35;;;;;;;15.47;9.10;;;;;;;;;;4930127;29;20702;-61
2022/03/17 01:33:02;;;;;;;15.53;9.50;;;;;;;;;;4927721;29;20291;-61
2022/03/17 01:35:29;;;;;;;15.33;8.93;;;;;;;;;;4928346;29;20212;-61
2022/03/17 01:37:56;;;;;;;12.97;8.47;;;;;;;;;;4924657;29;20211;-61
2022/03/17 01:40:23;;;;;;;13.40;7.97;;;;;;;;;;4921183;29;20209;-60
2022/03/17 01:42:51;;;;;;;14.40;8.53;;;;;;;;;;4923524;29;20215;-60
2022/03/17 01:45:18;;;;;;;15.57;9.30;;;;;;;;;;4925015;29;20250;-60
2022/03/17 01:47:45;;;;;;;15.87;9.47;;;;;;;;;;4924101;29;20287;-60
2022/03/17 01:50:14;;;;;;;10.73;8.27;;;;;;;;;;4924550;29;20294;-61
2022/03/17 01:52:41;;;;;;;15.83;8.87;;;;;;;;;;4921900;29;20256;-61
2022/03/17 01:55:09;;;;;;;16.33;9.63;;;;;;;;;;4925977;29;20644;-61
2022/03/17 01:57:36;;;;;;;16.27;9.30;;;;;;;;;;4923294;29;20231;-60
2022/03/17 02:00:06;;;;;;;14.40;8.43;;;;;;;;;;4924968;29;20216;-60
2022/03/17 02:02:33;;;;;;;11.73;8.27;;;;;;;;;;4920585;29;20692;-61
2022/03/17 02:05:03;;;;;;;15.93;8.30;;;;;;;;;;4924153;29;20219;-60
2022/03/17 02:07:30;;;;;;;15.23;8.67;;;;;;;;;;4922005;29;20235;-60
2022/03/17 02:09:57;;;;;;;15.93;9.57;;;;;;;;;;4923722;29;20668;-61
2022/03/17 02:15:11;;;;;;;13.47;8.50;;;;;;;;;;4924068;29;20210;-60
2022/03/17 02:17:40;;;;;;;15.73;9.43;;;;;;;;;;4923713;29;20217;-60
2022/03/17 02:20:09;;;;;;;13.60;9.27;;;;;;;;;;4922073;29;20212;-62
2022/03/17 02:22:38;;;;;;;19.30;8.57;;;;;;;;;;4922671;29;20207;-62
2022/03/17 02:27:52;;;;;;;13.93;9.30;;;;;;;;;;4924141;29;20235;-62
2022/03/17 02:30:21;;;;;;;14.63;9.17;;;;;;;;;;4923697;29;20661;-62
2022/03/17 02:32:48;;;;;;;17.23;9.30;;;;;;;;;;4925973;29;20731;-63
2022/03/17 02:35:16;;;;;;;14.47;9.60;;;;;;;;;;4923095;29;20579;-62
2022/03/17 02:37:43;;;;;;;17.30;9.73;;;;;;;;;;4920460;29;20211;-63
2022/03/17 02:40:12;;;;;;;14.40;9.33;;;;;;;;;;4922672;29;20224;-62
2022/03/17 02:42:40;;;;;;;17.27;9.00;;;;;;;;;;4922716;29;20819;-62
2022/03/17 02:45:08;;;;;;;15.30;9.40;;;;;;;;;;4922457;29;20205;-62
2022/03/17 02:47:36;;;;;;;18.63;9.43;;;;;;;;;;4922869;29;20236;-62
2022/03/17 02:50:03;;;;;;;17.53;9.33;;;;;;;;;;4923268;29;20219;-62
2022/03/17 02:52:30;;;;;;;15.53;9.13;;;;;;;;;;4922731;29;20235;-62
2022/03/17 02:54:57;;;;;;;14.17;8.77;;;;;;;;;;4930261;29;20230;-62
2022/03/17 02:57:26;;;;;;;15.10;10.27;;;;;;;;;;4922701;29;20267;-62
2022/03/17 02:59:54;;;;;;;15.57;9.23;;;;;;;;;;4920979;29;20271;-62
2022/03/17 03:02:21;;;;;;;15.10;8.37;;;;;;;;;;4920557;29;20439;-62
2022/03/17 03:04:48;;;;;;;15.43;9.03;;;;;;;;;;4921817;29;20223;-62
2022/03/17 03:07:15;;;;;;;15.50;8.37;;;;;;;;;;4921900;29;20204;-62
2022/03/17 03:09:42;;;;;;;13.33;8.37;;;;;;;;;;4924454;29;20240;-62
2022/03/17 03:12:10;;;;;;;18.10;9.83;;;;;;;;;;4922616;29;20208;-62
2022/03/17 03:14:38;;;;;;;17.50;9.90;;;;;;;;;;4924260;29;20208;-62
2022/03/17 03:17:06;;;;;;;17.33;9.63;;;;;;;;;;4931936;29;20215;-62
2022/03/17 03:19:34;;;;;;;17.40;9.93;;;;;;;;;;4924531;29;20204;-62
2022/03/17 03:22:01;;;;;;;15.83;9.47;;;;;;;;;;4932092;29;20311;-62
2022/03/17 03:24:28;;;;;;;13.80;8.30;;;;;;;;;;4931159;29;20291;-62
2022/03/17 03:26:55;;;;;;;17.43;9.77;;;;;;;;;;4931651;29;20477;-61
2022/03/17 03:29:22;;;;;;;17.40;9.77;;;;;;;;;;4931419;29;20240;-62
2022/03/17 03:31:51;;;;;;;14.53;8.67;;;;;;;;;;4931319;29;20244;-62
2022/03/17 03:34:18;;;;;;;16.70;9.27;;;;;;;;;;4932043;29;20295;-62
2022/03/17 03:39:30;;;;;;;19.50;10.23;;;;;;;;;;4931356;29;20587;-62
2022/03/17 03:41:57;;;;;;;13.27;8.50;;;;;;;;;;4932005;29;20908;-62
2022/03/17 03:44:24;;;;;;;16.00;8.83;;;;;;;;;;4931220;29;20211;-62
2022/03/17 03:46:53;;;;;;;16.53;8.97;;;;;;;;;;4931308;29;20259;-62
2022/03/17 03:49:21;;;;;;;13.23;8.40;;;;;;;;;;4931281;29;20232;-62
2022/03/17 03:51:48;;;;;;;15.63;9.57;;;;;;;;;;4931644;29;20212;-62
2022/03/17 03:54:17;;;;;;;16.93;9.83;;;;;;;;;;4930115;29;20212;-62
2022/03/17 03:56:45;;;;;;;16.33;9.43;;;;;;;;;;4921852;29;20219;-62
2022/03/17 03:59:15;;;;;;;15.90;9.93;;;;;;;;;;4930637;29;20303;-62
2022/03/17 04:01:42;;;;;;;18.23;9.77;;;;;;;;;;4931830;29;20207;-62
2022/03/17 04:04:13;;;;;;;16.27;9.27;;;;;;;;;;4931333;29;20207;-62
2022/03/17 04:06:42;;;;;;;18.20;9.87;;;;;;;;;;4931720;29;20207;-62
2022/03/17 04:09:09;;;;;;;16.33;9.40;;;;;;;;;;4931821;29;20681;-62
2022/03/17 04:11:36;;;;;;;17.07;9.13;;;;;;;;;;4932291;29;20219;-61
2022/03/17 04:14:03;;;;;;;14.73;8.93;;;;;;;;;;4931708;29;20207;-62
2022/03/17 04:16:31;;;;;;;15.40;9.00;;;;;;;;;;4931552;29;20729;-62
2022/03/17 04:18:58;;;;;;;14.43;9.03;;;;;;;;;;4931522;29;20704;-62
2022/03/17 04:21:27;;;;;;;14.00;8.43;;;;;;;;;;4931793;29;20208;-63
2022/03/17 04:23:54;;;;;;;16.77;9.43;;;;;;;;;;4931258;29;20829;-62
2022/03/17 04:26:21;;;;;;;16.87;9.57;;;;;;;;;;4920032;29;20230;-62
2022/03/17 04:28:48;;;;;;;17.80;8.83;;;;;;;;;;4930685;29;20227;-62
2022/03/17 04:31:15;;;;;;;16.40;9.13;;;;;;;;;;4931458;29;20713;-62
2022/03/17 04:33:42;;;;;;;17.10;10.33;;;;;;;;;;4929304;29;20723;-62
2022/03/17 04:36:11;;;;;;;15.07;8.63;;;;;;;;;;4927637;29;20216;-62
2022/03/17 04:38:39;;;;;;;17.57;9.43;;;;;;;;;;4931431;29;20203;-62
2022/03/17 04:41:08;;;;;;;17.83;10.47;;;;;;;;;;4931520;29;20207;-62
2022/03/17 04:43:35;;;;;;;14.03;8.70;;;;;;;;;;4931316;29;20211;-62
2022/03/17 04:46:02;;;;;;;18.80;9.03;;;;;;;;;;4931513;29;20211;-62
2022/03/17 04:48:29;;;;;;;19.13;11.20;;;;;;;;;;4931144;29;20493;-62
2022/03/17 04:50:56;;;;;;;14.00;9.40;;;;;;;;;;4930823;29;20207;-62
2022/03/17 04:53:32;;;;;;;15.23;9.47;;;;;;;;;;4931679;29;20216;-62
2022/03/17 04:56:01;;;;;;;19.97;11.20;;;;;;;;;;4931551;29;20222;-62
2022/03/17 04:58:29;;;;;;;20.33;10.37;;;;;;;;;;4931346;29;20317;-62
2022/03/17 05:00:56;;;;;;;19.50;10.10;;;;;;;;;;4931306;29;20302;-62
2022/03/17 05:03:23;;;;;;;16.20;9.63;;;;;;;;;;4930785;29;20650;-62
2022/03/17 05:05:50;;;;;;;15.10;9.07;;;;;;;;;;4922829;29;20357;-62
2022/03/17 05:08:17;;;;;;;17.03;10.00;;;;;;;;;;4930717;29;20331;-62
2022/03/17 05:10:44;;;;;;;16.47;9.53;;;;;;;;;;4930883;29;20212;-62
2022/03/17 05:13:13;;;;;;;19.70;10.67;;;;;;;;;;4934581;29;20204;-62
2022/03/17 05:15:40;;;;;;;17.33;9.27;;;;;;;;;;4934696;29;20215;-62
2022/03/17 05:18:08;;;;;;;13.73;8.70;;;;;;;;;;4934749;29;20241;-66
2022/03/17 05:20:35;;;;;;;17.23;9.23;;;;;;;;;;4932709;29;20696;-61
2022/03/17 05:23:04;;;;;;;16.23;9.13;;;;;;;;;;4934156;29;20968;-62
2022/03/17 05:25:31;;;;;;;14.70;9.30;;;;;;;;;;4933695;29;21018;-61
2022/03/17 05:27:58;;;;;;;18.93;8.83;;;;;;;;;;4928024;29;20333;-61
2022/03/17 05:30:27;;;;;;;16.07;9.80;;;;;;;;;;4933962;29;20260;-61
2022/03/17 05:32:54;;;;;;;16.70;9.73;;;;;;;;;;4933442;29;20298;-61
2022/03/17 05:35:21;;;;;;;19.70;11.00;;;;;;;;;;4934767;29;20271;-61
2022/03/17 05:37:50;;;;;;;22.60;12.03;;;;;;;;;;4934641;29;20208;-61
2022/03/17 05:40:18;;;;;;;26.43;13.47;;;;;;;;;;4934121;29;20207;-61
2022/03/17 05:42:45;;;;;;;25.77;11.10;;;;;;;;;;4934738;29;20211;-61
2022/03/17 05:45:14;;;;;;;19.03;10.30;;;;;;;;;;4933835;29;20208;-61
2022/03/17 05:47:43;;;;;;;19.20;9.77;;;;;;;;;;4925816;29;20803;-60
2022/03/17 05:50:12;;;;;;;15.63;9.17;;;;;;;;;;4926037;29;20235;-61
2022/03/17 05:52:40;;;;;;;15.60;9.43;;;;;;;;;;4932595;29;20211;-61
2022/03/17 05:55:07;;;;;;;18.00;10.57;;;;;;;;;;4933656;29;20208;-61
2022/03/17 05:57:35;;;;;;;18.30;10.57;;;;;;;;;;4932938;29;20204;-60
2022/03/17 06:00:02;;;;;;;19.53;10.67;;;;;;;;;;4933645;29;20322;-61
2022/03/17 06:02:29;;;;;;;18.03;10.83;;;;;;;;;;4934408;29;20220;-61
2022/03/17 06:04:57;;;;;;;18.90;10.43;;;;;;;;;;4933276;29;20218;-61
2022/03/17 06:07:24;;;;;;;16.50;9.77;;;;;;;;;;4933001;29;20240;-61
2022/03/17 06:09:51;;;;;;;17.83;10.73;;;;;;;;;;4931436;29;20268;-60
2022/03/17 06:12:18;;;;;;;16.50;10.07;;;;;;;;;;4934035;29;20211;-61
2022/03/17 06:14:45;;;;;;;17.67;10.43;;;;;;;;;;4933063;29;20263;-61
2022/03/17 06:17:12;;;;;;;16.47;9.47;;;;;;;;;;4933857;29;20646;-61
2022/03/17 06:19:40;;;;;;;14.37;8.50;;;;;;;;;;4933490;29;20579;-61
2022/03/17 06:22:08;;;;;;;18.27;9.80;;;;;;;;;;4934189;29;20377;-61
2022/03/17 06:24:35;;;;;;;17.53;8.97;;;;;;;;;;4932740;29;20215;-60
2022/03/17 06:27:02;;;;;;;10.80;8.03;;;;;;;;;;4933789;29;20263;-61
2022/03/17 06:29:29;;;;;;;17.13;9.30;;;;;;;;;;4933205;29;20231;-61
2022/03/17 06:31:57;;;;;;;19.67;10.23;;;;;;;;;;4932575;29;20243;-61
2022/03/17 06:34:25;;;;;;;16.17;9.77;;;;;;;;;;4931794;29;20299;-61
2022/03/17 06:36:52;;;;;;;14.53;9.23;;;;;;;;;;4933691;29;20216;-62
2022/03/17 06:39:20;;;;;;;17.60;9.27;;;;;;;;;;4933094;29;20214;-62
2022/03/17 06:41:47;;;;;;;15.27;9.47;;;;;;;;;;4933160;29;20211;-62
2022/03/17 06:44:14;;;;;;;15.97;9.97;;;;;;;;;;4932829;29;20215;-63
2022/03/17 06:46:41;;;;;;;18.33;9.40;;;;;;;;;;4933296;29;20234;-61
2022/03/17 06:49:08;;;;;;;16.00;9.23;;;;;;;;;;4933093;29;20239;-61
2022/03/17 06:51:35;;;;;;;16.00;9.13;;;;;;;;;;4933692;29;20203;-61
2022/03/17 06:54:02;;;;;;;14.57;8.97;;;;;;;;;;4933052;29;20211;-61
2022/03/17 06:56:31;;;;;;;18.90;9.80;;;;;;;;;;4933234;29;20208;-61
2022/03/17 06:58:59;;;;;;;17.63;9.17;;;;;;;;;;4918338;29;20594;-62
2022/03/17 07:01:26;;;;;;;16.87;9.97;;;;;;;;;;4923294;29;20274;-61
2022/03/17 07:03:53;;;;;;;18.33;10.27;;;;;;;;;;4933156;29;20216;-62
2022/03/17 07:06:21;;;;;;;20.13;8.97;;;;;;;;;;4932779;29;20208;-62
2022/03/17 07:08:48;;;;;;;17.43;9.60;;;;;;;;;;4933900;29;20618;-62
2022/03/17 07:11:15;;;;;;;15.70;8.80;;;;;;;;;;4935425;29;20295;-62
2022/03/17 07:13:43;;;;;;;18.03;9.90;;;;;;;;;;4932686;29;20582;-62
2022/03/17 07:16:10;;;;;;;16.13;9.93;;;;;;;;;;4931538;29;20208;-62
2022/03/17 07:18:37;;;;;;;15.67;9.27;;;;;;;;;;4927967;29;20212;-61
2022/03/17 07:21:04;;;;;;;15.93;10.37;;;;;;;;;;4917451;29;20592;-62
2022/03/17 07:23:32;;;;;;;13.20;9.07;;;;;;;;;;4938820;29;20195;-62
2022/03/17 07:25:59;;;;;;;18.10;10.57;;;;;;;;;;4936204;29;20303;-62
2022/03/17 07:28:26;;;;;;;17.73;10.30;;;;;;;;;;4932383;29;20587;-62
2022/03/17 07:30:54;;;;;;;16.77;10.17;;;;;;;;;;4929678;29;20239;-62
2022/03/17 07:33:22;;;;;;;19.37;9.20;;;;;;;;;;4931970;29;20248;-61
2022/03/17 07:35:49;;;;;;;15.63;9.17;;;;;;;;;;4931169;29;20671;-62
2022/03/17 07:38:16;;;;;;;15.30;9.27;;;;;;;;;;4932379;29;20215;-61
2022/03/17 07:40:45;;;;;;;13.93;8.93;;;;;;;;;;4932055;29;20211;-63
2022/03/17 07:43:12;;;;;;;13.80;8.87;;;;;;;;;;4932187;29;20208;-64
2022/03/17 07:45:39;;;;;;;12.63;8.77;;;;;;;;;;4932027;29;20216;-62
2022/03/17 07:48:08;;;;;;;14.87;9.43;;;;;;;;;;4932256;29;20721;-61
2022/03/17 07:50:35;;;;;;;16.23;9.23;;;;;;;;;;4930110;29;20702;-61
2022/03/17 07:53:02;;;;;;;14.30;8.27;;;;;;;;;;4932034;29;20218;-60
2022/03/17 07:55:29;;;;;;;17.70;9.67;;;;;;;;;;4929618;29;20226;-61
2022/03/17 07:57:56;;;;;;;17.27;9.83;;;;;;;;;;4915123;29;20249;-61
2022/03/17 08:00:23;;;;;;;19.17;9.63;;;;;;;;;;4932258;29;20211;-60
2022/03/17 08:02:50;;;;;;;10.47;7.83;;;;;;;;;;4931682;29;20222;-62
2022/03/17 08:05:19;;;;;;;11.23;7.87;;;;;;;;;;4932073;29;20983;-60
2022/03/17 08:07:47;;;;;;;17.33;8.60;;;;;;;;;;4930859;29;20200;-62
2022/03/17 08:10:15;;;;;;;15.33;8.97;;;;;;;;;;4931689;29;20232;-64
2022/03/17 08:12:42;;;;;;;18.13;9.37;;;;;;;;;;4921779;29;20977;-61
2022/03/17 08:15:10;;;;;;;17.80;9.43;;;;;;;;;;4931650;29;20693;-62
2022/03/17 08:17:37;;;;;;;14.83;8.70;;;;;;;;;;4931779;29;20200;-60
2022/03/17 08:20:05;;;;;;;12.23;7.93;;;;;;;;;;4925043;29;20215;-60
2022/03/17 08:22:34;;;;;;;15.27;8.77;;;;;;;;;;4918297;29;20211;-60
2022/03/17 08:25:03;;;;;;;14.27;8.63;;;;;;;;;;4931539;29;20239;-60
2022/03/17 08:27:30;;;;;;;15.30;9.27;;;;;;;;;;4930859;29;20667;-60
2022/03/17 08:29:57;;;;;;;13.53;8.17;;;;;;;;;;4930539;29;20247;-61
2022/03/17 08:32:24;;;;;;;16.73;9.10;;;;;;;;;;4930801;29;20294;-61
2022/03/17 08:34:51;;;;;;;16.20;9.07;;;;;;;;;;4931055;29;20216;-61
2022/03/17 08:37:18;;;;;;;13.27;8.33;;;;;;;;;;4930733;29;20218;-61
2022/03/17 08:39:48;;;;;;;14.97;9.30;;;;;;;;;;4930714;29;20263;-62
2022/03/17 08:42:15;;;;;;;13.70;8.43;;;;;;;;;;4931002;29;20576;-62
2022/03/17 08:44:42;;;;;;;17.37;9.57;;;;;;;;;;4930900;29;20216;-63
2022/03/17 08:49:54;;;;;;;18.57;8.57;;;;;;;;;;4934445;29;20343;-62
2022/03/17 08:52:21;;;;;;;15.30;9.20;;;;;;;;;;4934614;29;20223;-61
2022/03/17 08:54:59;;;;;;;15.13;9.10;;;;;;;;;;4934817;29;20223;-65
2022/03/17 08:57:26;;;;;;;15.47;9.63;;;;;;;;;;4934409;29;20214;-61
2022/03/17 08:59:53;;;;;;;18.23;9.97;;;;;;;;;;4934617;29;20243;-63
2022/03/17 09:02:20;;;;;;;16.53;8.97;;;;;;;;;;4933780;29;20204;-62
2022/03/17 09:04:48;;;;;;;16.57;9.27;;;;;;;;;;4933406;29;20216;-61
2022/03/17 09:07:15;;;;;;;15.13;8.90;;;;;;;;;;4933729;29;20621;-61
2022/03/17 09:09:42;;;;;;;16.17;8.47;;;;;;;;;;4933196;29;20278;-61
2022/03/17 09:12:11;;;;;;;12.40;7.90;;;;;;;;;;4933306;29;20223;-62
2022/03/17 09:14:41;;;;;;;17.27;9.60;;;;;;;;;;4933529;29;20350;-62
2022/03/17 09:17:08;;;;;;;13.80;7.73;;;;;;;;;;4933297;29;20596;-61
2022/03/17 09:19:37;;;;;;;15.60;7.90;;;;;;;;;;4932941;29;20212;-61
2022/03/17 09:22:04;;;;;;;16.07;8.60;;;;;;;;;;4933177;29;20204;-62
2022/03/17 09:24:31;;;;;;;15.33;8.70;;;;;;;;;;4933239;29;20425;-64
2022/03/17 09:26:58;;;;;;;13.63;8.47;;;;;;;;;;4933559;29;20748;-63
2022/03/17 09:29:28;;;;;;;15.87;9.00;;;;;;;;;;4932735;29;20232;-62
2022/03/17 09:31:58;;;;;;;15.93;8.87;;;;;;;;;;4932756;29;20990;-62
2022/03/17 09:34:25;;;;;;;14.77;8.30;;;;;;;;;;4933483;29;20236;-63
2022/03/17 09:36:52;;;;;;;13.73;8.83;;;;;;;;;;4933745;29;20753;-62
2022/03/17 09:42:04;;;;;;;13.80;9.17;;;;;;;;;;4934077;29;20206;-61
2022/03/17 09:44:32;;;;;;;18.00;9.40;;;;;;;;;;4933956;29;20274;-63
2022/03/17 09:47:00;;;;;;;15.43;9.43;;;;;;;;;;4934067;29;20215;-62
2022/03/17 09:49:27;;;;;;;16.93;8.80;;;;;;;;;;4933765;29;20211;-62
2022/03/17 09:51:57;;;;;;;15.53;8.87;;;;;;;;;;4933511;29;20223;-67
2022/03/17 09:54:24;;;;;;;17.60;8.63;;;;;;;;;;4933249;29;20218;-63
2022/03/17 09:56:51;;;;;;;16.93;9.07;;;;;;;;;;4933330;29;20267;-62
2022/03/17 09:59:18;;;;;;;12.90;7.23;;;;;;;;;;4932584;29;20216;-64
2022/03/17 10:01:47;;;;;;;17.87;9.80;;;;;;;;;;4932567;29;20556;-61
2022/03/17 10:04:15;;;;;;;15.43;9.07;;;;;;;;;;4933281;29;20219;-61
2022/03/17 10:06:42;;;;;;;18.50;9.47;;;;;;;;;;4933154;29;20215;-61
2022/03/17 10:09:10;;;;;;;20.07;9.97;;;;;;;;;;4932868;29;20207;-60
2022/03/17 10:11:37;;;;;;;16.17;9.33;;;;;;;;;;4933445;29;20231;-64
2022/03/17 10:14:05;;;;;;;17.03;10.17;;;;;;;;;;4932821;29;20291;-62
2022/03/17 10:16:33;;;;;;;15.43;8.97;;;;;;;;;;4933817;29;20318;-64
2022/03/17 10:19:02;;;;;;;14.83;9.43;;;;;;;;;;4932891;29;20235;-65
2022/03/17 10:21:30;;;;;;;19.37;10.87;;;;;;;;;;4932760;29;20208;-63
2022/03/17 10:23:59;;;;;;;16.43;9.47;;;;;;;;;;4935076;29;20212;-62
2022/03/17 10:26:34;;;;;;;17.90;9.80;;;;;;;;;;4934002;29;20223;-62
2022/03/17 10:29:08;;;;;;;16.77;9.10;;;;;;;;;;4928621;29;20694;-64
2022/03/17 10:31:50;;;;;;;14.47;9.47;;;;;;;;;;4929863;29;20247;-64
2022/03/17 10:34:18;;;;;;;17.27;9.90;;;;;;;;;;4923069;29;20244;-62
2022/03/17 10:36:47;;;;;;;19.17;10.47;;;;;;;;;;4926761;29;20278;-60
2022/03/17 10:39:14;;;;;;;19.70;10.27;;;;;;;;;;4929123;29;20215;-64
2022/03/17 10:41:42;;;;;;;16.10;9.40;;;;;;;;;;4924021;29;20585;-62
2022/03/17 10:44:11;;;;;;;17.47;10.73;;;;;;;;;;4927271;29;20747;-62
2022/03/17 10:46:38;;;;;;;16.43;10.73;;;;;;;;;;4926838;29;20302;-62
2022/03/17 10:49:06;;;;;;;17.50;10.30;;;;;;;;;;4921830;29;20681;-63
2022/03/17 10:51:38;;;;;;;17.17;10.00;;;;;;;;;;4927785;29;20235;-63
2022/03/17 10:54:06;;;;;;;18.83;10.53;;;;;;;;;;4925418;29;20223;-63
2022/03/17 10:56:35;;;;;;;19.87;11.47;;;;;;;;;;4925174;29;20679;-63
2022/03/17 10:59:02;;;;;;;18.90;9.97;;;;;;;;;;4928788;29;20228;-62
2022/03/17 11:01:36;;;;;;;21.00;10.70;;;;;;;;;;4928287;29;20204;-63
2022/03/17 11:04:03;;;;;;;25.20;11.53;;;;;;;;;;4925117;29;20212;-63
2022/03/17 11:06:30;;;;;;;16.93;9.93;;;;;;;;;;4929200;29;20208;-64
2022/03/17 11:09:01;;;;;;;20.87;10.40;;;;;;;;;;4927261;29;20590;-61
2022/03/17 11:11:28;;;;;;;17.60;10.47;;;;;;;;;;4927746;29;20304;-64
2022/03/17 11:13:56;;;;;;;19.10;10.90;;;;;;;;;;4928195;29;20306;-64
2022/03/17 11:16:24;;;;;;;19.40;9.77;;;;;;;;;;4928412;29;20852;-63
2022/03/17 11:18:52;;;;;;;14.17;9.17;;;;;;;;;;4928798;29;20222;-63
2022/03/17 11:21:20;;;;;;;16.33;8.30;;;;;;;;;;4927918;29;20216;-62
2022/03/17 11:23:55;;;;;;;13.47;7.17;;;;;;;;;;4928534;29;20208;-63
2022/03/17 11:26:25;;;;;;;14.87;8.37;;;;;;;;;;4927258;29;20204;-64
2022/03/17 11:28:59;;;;;;;12.00;6.90;;;;;;;;;;4928556;29;20220;-63
2022/03/17 11:31:27;;;;;;;16.63;9.03;;;;;;;;;;4927369;29;20343;-62
2022/03/17 11:33:59;;;;;;;11.27;6.63;;;;;;;;;;4927486;29;20236;-60
2022/03/17 11:36:26;;;;;;;12.30;8.00;;;;;;;;;;4927988;29;20295;-62
2022/03/17 11:38:56;;;;;;;11.87;7.20;;;;;;;;;;4927957;29;20207;-62
2022/03/17 11:41:26;;;;;;;16.03;7.63;;;;;;;;;;4927432;29;20336;-60
2022/03/17 11:44:05;;;;;;;11.10;7.13;;;;;;;;;;4928033;29;20212;-61
2022/03/17 11:46:44;;;;;;;18.17;8.53;;;;;;;;;;4927559;29;20327;-65
2022/03/17 11:49:18;;;;;;;14.03;6.70;;;;;;;;;;4925429;29;20211;-62
2022/03/17 11:51:52;;;;;;;13.07;7.30;;;;;;;;;;4914346;29;20251;-62
2022/03/17 11:54:19;;;;;;;14.43;7.03;;;;;;;;;;4916809;29;20211;-62
2022/03/17 11:56:53;;;;;;;13.83;6.80;;;;;;;;;;4918884;29;20219;-63
2022/03/17 11:59:22;;;;;;;12.43;6.37;;;;;;;;;;4922541;29;20701;-63
2022/03/17 12:01:50;;;;;;;16.07;7.10;;;;;;;;;;4927798;29;20713;-63
2022/03/17 12:04:24;;;;;;;11.90;6.27;;;;;;;;;;4927295;29;20212;-64
2022/03/17 12:06:55;;;;;;;10.10;5.70;;;;;;;;;;4926997;29;20214;-62
2022/03/17 12:09:32;;;;;;;11.33;6.57;;;;;;;;;;4927907;29;20219;-61
2022/03/17 12:12:00;;;;;;;11.07;5.97;;;;;;;;;;4927993;29;20606;-60
2022/03/17 12:14:28;;;;;;;14.20;6.80;;;;;;;;;;4927933;29;20207;-63
2022/03/17 12:16:56;;;;;;;12.07;6.63;;;;;;;;;;4927636;29;20218;-63
2022/03/17 12:19:30;;;;;;;10.13;6.60;;;;;;;;;;4927936;29;20226;-63
2022/03/17 12:22:05;;;;;;;8.70;5.77;;;;;;;;;;4927742;29;20302;-63
2022/03/17 12:24:39;;;;;;;8.73;5.47;;;;;;;;;;4928406;29;20216;-63
2022/03/17 12:27:10;;;;;;;13.33;5.93;;;;;;;;;;4913113;29;20306;-64
2022/03/17 12:29:37;;;;;;;8.70;5.83;;;;;;;;;;4934163;29;20224;-65
2022/03/17 12:32:05;;;;;;;11.60;6.10;;;;;;;;;;4942215;29;20235;-63
2022/03/17 12:34:33;;;;;;;9.93;6.90;;;;;;;;;;4922850;29;20207;-64
2022/03/17 12:37:01;;;;;;;9.03;6.07;;;;;;;;;;4926904;29;20219;-64
2022/03/17 12:39:29;;;;;;;10.50;6.60;;;;;;;;;;4927456;29;20249;-65
2022/03/17 12:41:56;;;;;;;11.37;6.53;;;;;;;;;;4927495;29;20310;-63
2022/03/17 12:44:25;;;;;;;11.80;6.70;;;;;;;;;;4927243;29;20271;-62
2022/03/17 12:46:53;;;;;;;10.77;6.30;;;;;;;;;;4927028;29;20294;-63
2022/03/17 12:49:20;;;;;;;7.30;5.53;;;;;;;;;;4927453;29;20223;-65
2022/03/17 12:51:48;;;;;;;10.57;6.07;;;;;;;;;;4923642;29;20236;-63
2022/03/17 12:54:15;;;;;;;9.43;5.90;;;;;;;;;;4921749;29;20279;-64
2022/03/17 12:56:50;;;;;;;7.17;5.90;;;;;;;;;;4924527;29;20243;-63
2022/03/17 12:59:17;;;;;;;8.87;6.27;;;;;;;;;;4908249;29;20219;-63
2022/03/17 13:01:46;;;;;;;10.00;6.07;;;;;;;;;;4917778;29;20212;-61
2022/03/17 13:04:13;;;;;;;7.27;5.53;;;;;;;;;;4925993;29;20219;-62
2022/03/17 13:06:55;;;;;;;11.43;5.77;;;;;;;;;;4926050;29;20632;-62
2022/03/17 13:09:27;;;;;;;10.97;5.17;;;;;;;;;;4919514;29;20272;-61
2022/03/17 13:14:45;;;;;;;9.03;5.53;;;;;;;;;;4926107;29;20211;-61
2022/03/17 13:17:13;;;;;;;11.87;5.40;;;;;;;;;;4924730;29;20215;-61
2022/03/17 13:19:44;;;;;;;6.40;4.60;;;;;;;;;;4925208;29;20207;-61
2022/03/17 13:22:11;;;;;;;8.23;5.67;;;;;;;;;;4926574;29;20635;-61
2022/03/17 13:24:38;;;;;;;7.43;4.83;;;;;;;;;;4926056;29;20219;-62
2022/03/17 13:27:05;;;;;;;7.27;3.90;;;;;;;;;;4925205;29;20263;-61
2022/03/17 13:29:35;;;;;;;10.30;4.90;;;;;;;;;;4923633;29;20232;-61
2022/03/17 13:32:03;;;;;;;4.83;4.33;;;;;;;;;;4922269;29;20339;-61
2022/03/17 13:34:33;;;;;;;5.53;4.50;;;;;;;;;;4927316;29;20687;-61
2022/03/17 13:37:01;;;;;;;6.13;3.93;;;;;;;;;;4934339;29;20806;-63
2022/03/17 13:39:35;;;;;;;6.80;4.53;;;;;;;;;;4931840;29;20765;-63
2022/03/17 13:42:06;;;;;;;5.60;4.90;;;;;;;;;;4927613;29;20299;-63
2022/03/17 13:44:42;;;;;;;7.43;4.47;;;;;;;;;;4929592;29;20223;-63
2022/03/17 13:47:13;;;;;;;7.10;4.17;;;;;;;;;;4930491;29;20211;-62
2022/03/17 13:49:41;;;;;;;5.20;4.13;;;;;;;;;;4930047;29;20211;-63
2022/03/17 13:52:11;;;;;;;4.20;3.80;;;;;;;;;;4930521;29;20261;-63
2022/03/17 13:54:42;;;;;;;4.07;3.67;;;;;;;;;;4930351;29;20235;-61
2022/03/17 13:57:09;;;;;;;4.37;3.67;;;;;;;;;;4932615;29;20214;-63
2022/03/17 13:59:36;;;;;;;4.67;3.20;;;;;;;;;;4929758;29;20294;-61
2022/03/17 14:02:13;;;;;;;6.23;3.77;;;;;;;;;;4930867;29;20741;-60
2022/03/17 14:04:54;;;;;;;7.33;3.60;;;;;;;;;;4929547;29;20307;-61
2022/03/17 14:07:21;;;;;;;3.90;3.37;;;;;;;;;;4922970;29;20204;-61
2022/03/17 14:09:48;;;;;;;1.17;1.07;;;;;;;;;;4917697;29;20216;-62
2022/03/17 14:12:16;;;;;;;2.80;2.53;;;;;;;;;;4924530;29;20657;-62
2022/03/17 14:14:43;;;;;;;2.97;2.67;;;;;;;;;;4930025;29;20212;-62
2022/03/17 14:17:10;;;;;;;2.77;2.57;;;;;;;;;;4931036;29;20307;-62
2022/03/17 14:19:37;;;;;;;2.27;2.13;;;;;;;;;;4932134;29;20219;-62
2022/03/17 14:24:50;;;;;;;2.13;2.03;;;;;;;;;;4946674;29;20214;-62
2022/03/17 14:27:17;;;;;;;2.37;2.00;;;;;;;;;;4929159;29;20219;-62
2022/03/17 14:29:46;;;;;;;4.03;2.17;;;;;;;;;;4929899;29;20232;-62
2022/03/17 14:32:35;;;;;;;2.37;2.23;;;;;;;;;;4921012;29;20444;-61
2022/03/17 14:35:03;;;;;;;2.30;1.80;;;;;;;;;;4928626;29;20682;-61
2022/03/17 14:37:32;;;;;;;3.10;2.20;;;;;;;;;;4927396;29;20445;-63
2022/03/17 14:39:59;;;;;;;2.50;2.20;;;;;;;;;;4928063;29;20207;-62
2022/03/17 14:42:27;;;;;;;3.47;2.77;;;;;;;;;;4926739;29;20218;-62
2022/03/17 14:44:54;;;;;;;2.50;1.93;;;;;;;;;;4927681;29;20207;-62
2022/03/17 14:47:21;;;;;;;3.90;2.20;;;;;;;;;;4928064;29;20222;-62
2022/03/17 14:49:48;;;;;;;2.23;2.03;;;;;;;;;;4927824;29;20208;-63
2022/03/17 14:52:15;;;;;;;1.97;1.77;;;;;;;;;;4927776;29;20238;-63
2022/03/17 14:54:44;;;;;;;2.47;2.27;;;;;;;;;;4928402;29;20219;-64
2022/03/17 14:57:12;;;;;;;3.47;2.87;;;;;;;;;;4927867;29;20739;-63